Oval Lp No.11 — JL6306 — position and weather

sailwx.info

Track history (hours):
 
Tides and Currents Weather Stations Pressure Air Temp Water Temp Dewpoint Dewpoint Depression Visibility Wind Speed Wind Dir Waves Ship Positions

Oval Lp No.11

Last reported at 2017-Apr-30 07:01 UTC. Time now 2017-Apr-30 13:00 UTC.
Position N 33°58' E 135°00'.

Length 67 m; draft 3.6 m.

Type: Ship (hazmat cat A). MMSI: 431500366.

Date/timePositionNaut miles runAvg speedWind from/ knotsBaromVisibWave heightAir tempDewpointWater temp
2017-Apr-30 07:01N 33°58' E 135°00'311.1
2017-Apr-30 06:42N 34°02' E 134°60'211.2
2017-Apr-30 06:29N 34°04' E 134°60'611.8
2017-Apr-30 05:59N 34°10' E 134°59'612.7
2017-Apr-30 05:30N 34°16' E 134°58'612.1
2017-Apr-30 05:00N 34°22' E 135°01'611.7
2017-Apr-30 04:30N 34°25' E 135°06'711.9
2017-Apr-30 03:57N 34°30' E 135°12'511.6
2017-Apr-30 03:30N 34°33' E 135°17'611.4
2017-Apr-30 03:00N 34°36' E 135°23'3 6.3
2017-Apr-30 02:30N 34°34' E 135°26'0 0.0
2017-Apr-30 01:59N 34°34' E 135°26'0 0.0
2017-Apr-30 01:29N 34°34' E 135°26'0 0.0
2017-Apr-30 00:59N 34°34' E 135°26'0 0.0
2017-Apr-30 00:23N 34°34' E 135°26'0 0.0
2017-Apr-29 23:53N 34°34' E 135°26'0 0.1
2017-Apr-29 23:29N 34°34' E 135°26'2 3.3
2017-Apr-29 23:00N 34°36' E 135°25'2 2.9
2017-Apr-29 22:27N 34°36' E 135°23'0 0.0
2017-Apr-29 21:57N 34°36' E 135°23'0 0.0
2017-Apr-29 21:27N 34°36' E 135°23'0 0.0
2017-Apr-29 20:57N 34°36' E 135°23'0 0.0
2017-Apr-29 20:27N 34°36' E 135°23'0 0.0
2017-Apr-29 19:51N 34°36' E 135°23'0 0.0
2017-Apr-29 19:27N 34°36' E 135°23'0 0.0
2017-Apr-29 18:51N 34°36' E 135°23'0 0.0
2017-Apr-29 18:15N 34°36' E 135°23'0 0.0
2017-Apr-29 17:57N 34°36' E 135°23'0 0.0
2017-Apr-29 17:27N 34°36' E 135°23'0 0.0
2017-Apr-29 16:57N 34°36' E 135°23'0 0.0
2017-Apr-29 16:27N 34°36' E 135°23'0 0.0
2017-Apr-29 15:51N 34°36' E 135°23'0 0.0
2017-Apr-29 15:27N 34°36' E 135°23'0 0.0
2017-Apr-29 14:57N 34°36' E 135°23'0 0.0
2017-Apr-29 14:27N 34°36' E 135°23'0 0.0
2017-Apr-29 13:57N 34°36' E 135°23'0 0.0
2017-Apr-29 13:28N 34°36' E 135°23'3 7.3
2017-Apr-29 13:00N 34°34' E 135°20'611.1
2017-Apr-29 12:30N 34°30' E 135°15'611.3
2017-Apr-29 12:00N 34°26' E 135°10'611.8
2017-Apr-29 11:27N 34°22' E 135°04'712.5
2017-Apr-29 10:55N 34°16' E 134°59'511.4
2017-Apr-29 10:30N 34°12' E 135°00'611.3
2017-Apr-29 09:56N 34°05' E 135°01'240 9.1
2017-Apr-28 07:28N 35°08' E 139°43'610.8
2017-Apr-28 06:52N 35°14' E 139°46'3 9.8
2017-Apr-28 06:30N 35°17' E 139°45'510.3
2017-Apr-28 06:00N 35°22' E 139°42'5 9.7
2017-Apr-28 05:30N 35°26' E 139°46'510.7
2017-Apr-28 05:00N 35°29' E 139°51'611.2
2017-Apr-28 04:30N 35°32' E 139°57'510.6
2017-Apr-28 04:00N 35°33' E 140°04'2 1.3
2017-Apr-28 02:47N 35°33' E 140°05'0 0.0
2017-Apr-28 02:11N 35°33' E 140°05'0 0.0
2017-Apr-28 01:59N 35°33' E 140°05'0 0.0
2017-Apr-28 00:38N 35°33' E 140°05'0 0.0
2017-Apr-28 00:29N 35°33' E 140°05'0 0.0
2017-Apr-27 23:34N 35°33' E 140°05'0 2.8
2017-Apr-27 23:31N 35°33' E 140°05'3 6.7
2017-Apr-27 23:01N 35°33' E 140°01'611.6
2017-Apr-27 22:31N 35°30' E 139°55'611.5
2017-Apr-27 22:01N 35°26' E 139°49'510.9
2017-Apr-27 21:31N 35°22' E 139°45'510.0
2017-Apr-27 21:01N 35°17' E 139°46'610.7
2017-Apr-27 20:30N 35°11' E 139°47'2 0.0
2017-Apr-26 07:04N 35°11' E 139°45'110.1
2017-Apr-26 06:57N 35°12' E 139°46'4 9.5
2017-Apr-26 06:30N 35°16' E 139°45'510.1
2017-Apr-26 06:00N 35°21' E 139°42'5 9.3
2017-Apr-26 05:30N 35°25' E 139°44'5 9.8
2017-Apr-26 05:00N 35°28' E 139°49'5 9.8
2017-Apr-26 04:30N 35°31' E 139°54'510.4
2017-Apr-26 04:00N 35°32' E 140°00'4 8.4
2017-Apr-26 03:31N 35°33' E 140°05'0 0.0
2017-Apr-26 00:29N 35°33' E 140°05'0 0.0
2017-Apr-25 23:59N 35°33' E 140°05'2 4.1
2017-Apr-25 23:30N 35°33' E 140°03'511.0
2017-Apr-25 23:00N 35°30' E 139°58'2 0.4
2017-Apr-25 17:23N 35°29' E 139°56'0 0.0
2017-Apr-25 16:44N 35°29' E 139°56'0 0.0
2017-Apr-25 16:26N 35°29' E 139°56'0 0.0
2017-Apr-25 15:41N 35°29' E 139°56'0 0.0
2017-Apr-25 15:26N 35°29' E 139°56'0 0.0
2017-Apr-25 14:44N 35°29' E 139°56'0 0.0
2017-Apr-25 14:26N 35°29' E 139°56'0 0.0
2017-Apr-25 13:05N 35°29' E 139°56'0 0.0
2017-Apr-25 12:56N 35°29' E 139°56'0 0.0
2017-Apr-25 11:05N 35°29' E 139°56'0 0.1
2017-Apr-25 10:59N 35°29' E 139°56'0 0.0
2017-Apr-25 10:26N 35°29' E 139°56'0 0.0
2017-Apr-25 09:56N 35°29' E 139°56'3 6.2
2017-Apr-25 09:30N 35°29' E 139°53'612.1
2017-Apr-25 09:00N 35°25' E 139°47'612.0
2017-Apr-25 08:30N 35°19' E 139°44'611.6
2017-Apr-25 08:00N 35°14' E 139°47'612.2
2017-Apr-25 07:30N 35°08' E 139°46'611.8
2017-Apr-25 07:00N 35°03' E 139°41'612.7
2017-Apr-25 06:30N 34°59' E 139°35'23510.0
2017-Apr-24 06:56N 33°59' E 135°00'510.8
2017-Apr-24 06:30N 34°03' E 134°60'511.1
2017-Apr-24 06:00N 34°09' E 134°59'1212.8
2017-Apr-24 05:04N 34°21' E 135°00'612.5
2017-Apr-24 04:37N 34°25' E 135°05'112.9
2017-Apr-24 04:30N 34°26' E 135°06'712.7
2017-Apr-24 03:57N 34°30' E 135°13'612.3
2017-Apr-24 03:30N 34°34' E 135°18'510.9
2017-Apr-24 03:00N 34°36' E 135°24'3 5.2
2017-Apr-24 02:30N 34°34' E 135°26'0 0.0
2017-Apr-24 01:59N 34°34' E 135°26'0 0.0
2017-Apr-24 01:29N 34°34' E 135°26'0 0.0
2017-Apr-24 00:53N 34°34' E 135°26'0 0.0
2017-Apr-24 00:29N 34°34' E 135°26'0 0.0
2017-Apr-23 23:53N 34°34' E 135°26'0 0.0
2017-Apr-23 23:30N 34°34' E 135°26'3 6.1
2017-Apr-23 23:01N 34°36' E 135°23'611.3
2017-Apr-23 22:29N 34°33' E 135°18'611.4
2017-Apr-23 22:00N 34°29' E 135°12'611.9
2017-Apr-23 21:30N 34°25' E 135°08'612.1
2017-Apr-23 21:00N 34°20' E 135°02'611.8
2017-Apr-23 20:31N 34°15' E 134°59'611.8
2017-Apr-23 20:00N 34°09' E 135°00'11 0.3
2017-Apr-22 06:39N 33°58' E 135°00'512.1
2017-Apr-22 06:17N 34°03' E 134°59'412.1
2017-Apr-22 05:59N 34°07' E 134°59'612.6
2017-Apr-22 05:28N 34°13' E 134°58'712.8
2017-Apr-22 04:55N 34°20' E 134°59'512.0
2017-Apr-22 04:29N 34°24' E 135°03'612.3
2017-Apr-22 04:00N 34°28' E 135°09'612.2
2017-Apr-22 03:29N 34°31' E 135°15'611.9
2017-Apr-22 02:59N 34°35' E 135°21'4 7.8
2017-Apr-22 02:29N 34°35' E 135°25'0 0.4
2017-Apr-22 01:30N 34°34' E 135°26'0 0.0
2017-Apr-22 01:00N 34°34' E 135°26'0 0.0
2017-Apr-22 00:24N 34°34' E 135°26'0 0.0
2017-Apr-22 00:00N 34°34' E 135°26'0 0.0
2017-Apr-21 23:24N 34°34' E 135°26'1 2.7
2017-Apr-21 23:00N 34°35' E 135°25'5 9.1
2017-Apr-21 22:30N 34°34' E 135°20'611.0
2017-Apr-21 22:00N 34°31' E 135°15'611.0
2017-Apr-21 21:30N 34°27' E 135°10'611.4
2017-Apr-21 21:00N 34°23' E 135°05'811.4
2017-Apr-21 20:17N 34°16' E 134°59'312.2
2017-Apr-21 20:00N 34°13' E 134°60'611.6
2017-Apr-21 19:29N 34°07' E 135°01'611.6
2017-Apr-21 18:59N 34°01' E 135°02'  
Track history (hours):
 
Tides and Currents Weather Stations Pressure Air Temp Water Temp Dewpoint Dewpoint Depression Visibility Wind Speed Wind Dir Waves Ship Positions

Oval Lp No.11

Last reported at 2017-Apr-30 07:01 UTC. Time now 2017-Apr-30 13:00 UTC.
Position N 33°58' E 135°00'.

Length 67 m; draft 3.6 m.

Type: Ship (hazmat cat A). MMSI: 431500366.

Date/timePositionNaut miles runAvg speedWind from/ knotsBaromVisibWave heightAir tempDewpointWater temp
2017-Apr-30 07:01N 33°58' E 135°00'311.1
2017-Apr-30 06:42N 34°02' E 134°60'211.2
2017-Apr-30 06:29N 34°04' E 134°60'611.8
2017-Apr-30 05:59N 34°10' E 134°59'612.7
2017-Apr-30 05:30N 34°16' E 134°58'612.1
2017-Apr-30 05:00N 34°22' E 135°01'611.7
2017-Apr-30 04:30N 34°25' E 135°06'711.9
2017-Apr-30 03:57N 34°30' E 135°12'511.6
2017-Apr-30 03:30N 34°33' E 135°17'611.4
2017-Apr-30 03:00N 34°36' E 135°23'3 6.3
2017-Apr-30 02:30N 34°34' E 135°26'0 0.0
2017-Apr-30 01:59N 34°34' E 135°26'0 0.0
2017-Apr-30 01:29N 34°34' E 135°26'0 0.0
2017-Apr-30 00:59N 34°34' E 135°26'0 0.0
2017-Apr-30 00:23N 34°34' E 135°26'0 0.0
2017-Apr-29 23:53N 34°34' E 135°26'0 0.1
2017-Apr-29 23:29N 34°34' E 135°26'2 3.3
2017-Apr-29 23:00N 34°36' E 135°25'2 2.9
2017-Apr-29 22:27N 34°36' E 135°23'0 0.0
2017-Apr-29 21:57N 34°36' E 135°23'0 0.0
2017-Apr-29 21:27N 34°36' E 135°23'0 0.0
2017-Apr-29 20:57N 34°36' E 135°23'0 0.0
2017-Apr-29 20:27N 34°36' E 135°23'0 0.0
2017-Apr-29 19:51N 34°36' E 135°23'0 0.0
2017-Apr-29 19:27N 34°36' E 135°23'0 0.0
2017-Apr-29 18:51N 34°36' E 135°23'0 0.0
2017-Apr-29 18:15N 34°36' E 135°23'0 0.0
2017-Apr-29 17:57N 34°36' E 135°23'0 0.0
2017-Apr-29 17:27N 34°36' E 135°23'0 0.0
2017-Apr-29 16:57N 34°36' E 135°23'0 0.0
2017-Apr-29 16:27N 34°36' E 135°23'0 0.0
2017-Apr-29 15:51N 34°36' E 135°23'0 0.0
2017-Apr-29 15:27N 34°36' E 135°23'0 0.0
2017-Apr-29 14:57N 34°36' E 135°23'0 0.0
2017-Apr-29 14:27N 34°36' E 135°23'0 0.0
2017-Apr-29 13:57N 34°36' E 135°23'0 0.0
2017-Apr-29 13:28N 34°36' E 135°23'3 7.3
2017-Apr-29 13:00N 34°34' E 135°20'611.1
2017-Apr-29 12:30N 34°30' E 135°15'611.3
2017-Apr-29 12:00N 34°26' E 135°10'611.8
2017-Apr-29 11:27N 34°22' E 135°04'712.5
2017-Apr-29 10:55N 34°16' E 134°59'511.4
2017-Apr-29 10:30N 34°12' E 135°00'611.3
2017-Apr-29 09:56N 34°05' E 135°01'240 9.1
2017-Apr-28 07:28N 35°08' E 139°43'610.8
2017-Apr-28 06:52N 35°14' E 139°46'3 9.8
2017-Apr-28 06:30N 35°17' E 139°45'510.3
2017-Apr-28 06:00N 35°22' E 139°42'5 9.7
2017-Apr-28 05:30N 35°26' E 139°46'510.7
2017-Apr-28 05:00N 35°29' E 139°51'611.2
2017-Apr-28 04:30N 35°32' E 139°57'510.6
2017-Apr-28 04:00N 35°33' E 140°04'2 1.3
2017-Apr-28 02:47N 35°33' E 140°05'0 0.0
2017-Apr-28 02:11N 35°33' E 140°05'0 0.0
2017-Apr-28 01:59N 35°33' E 140°05'0 0.0
2017-Apr-28 00:38N 35°33' E 140°05'0 0.0
2017-Apr-28 00:29N 35°33' E 140°05'0 0.0
2017-Apr-27 23:34N 35°33' E 140°05'0 2.8
2017-Apr-27 23:31N 35°33' E 140°05'3 6.7
2017-Apr-27 23:01N 35°33' E 140°01'611.6
2017-Apr-27 22:31N 35°30' E 139°55'611.5
2017-Apr-27 22:01N 35°26' E 139°49'510.9
2017-Apr-27 21:31N 35°22' E 139°45'510.0
2017-Apr-27 21:01N 35°17' E 139°46'610.7
2017-Apr-27 20:30N 35°11' E 139°47'2 0.0
2017-Apr-26 07:04N 35°11' E 139°45'110.1
2017-Apr-26 06:57N 35°12' E 139°46'4 9.5
2017-Apr-26 06:30N 35°16' E 139°45'510.1
2017-Apr-26 06:00N 35°21' E 139°42'5 9.3
2017-Apr-26 05:30N 35°25' E 139°44'5 9.8
2017-Apr-26 05:00N 35°28' E 139°49'5 9.8
2017-Apr-26 04:30N 35°31' E 139°54'510.4
2017-Apr-26 04:00N 35°32' E 140°00'4 8.4
2017-Apr-26 03:31N 35°33' E 140°05'0 0.0
2017-Apr-26 00:29N 35°33' E 140°05'0 0.0
2017-Apr-25 23:59N 35°33' E 140°05'2 4.1
2017-Apr-25 23:30N 35°33' E 140°03'511.0
2017-Apr-25 23:00N 35°30' E 139°58'2 0.4
2017-Apr-25 17:23N 35°29' E 139°56'0 0.0
2017-Apr-25 16:44N 35°29' E 139°56'0 0.0
2017-Apr-25 16:26N 35°29' E 139°56'0 0.0
2017-Apr-25 15:41N 35°29' E 139°56'0 0.0
2017-Apr-25 15:26N 35°29' E 139°56'0 0.0
2017-Apr-25 14:44N 35°29' E 139°56'0 0.0
2017-Apr-25 14:26N 35°29' E 139°56'0 0.0
2017-Apr-25 13:05N 35°29' E 139°56'0 0.0
2017-Apr-25 12:56N 35°29' E 139°56'0 0.0
2017-Apr-25 11:05N 35°29' E 139°56'0 0.1
2017-Apr-25 10:59N 35°29' E 139°56'0 0.0
2017-Apr-25 10:26N 35°29' E 139°56'0 0.0
2017-Apr-25 09:56N 35°29' E 139°56'3 6.2
2017-Apr-25 09:30N 35°29' E 139°53'612.1
2017-Apr-25 09:00N 35°25' E 139°47'612.0
2017-Apr-25 08:30N 35°19' E 139°44'611.6
2017-Apr-25 08:00N 35°14' E 139°47'612.2
2017-Apr-25 07:30N 35°08' E 139°46'611.8
2017-Apr-25 07:00N 35°03' E 139°41'612.7
2017-Apr-25 06:30N 34°59' E 139°35'23510.0
2017-Apr-24 06:56N 33°59' E 135°00'510.8
2017-Apr-24 06:30N 34°03' E 134°60'511.1
2017-Apr-24 06:00N 34°09' E 134°59'1212.8
2017-Apr-24 05:04N 34°21' E 135°00'612.5
2017-Apr-24 04:37N 34°25' E 135°05'112.9
2017-Apr-24 04:30N 34°26' E 135°06'712.7
2017-Apr-24 03:57N 34°30' E 135°13'612.3
2017-Apr-24 03:30N 34°34' E 135°18'510.9
2017-Apr-24 03:00N 34°36' E 135°24'3 5.2
2017-Apr-24 02:30N 34°34' E 135°26'0 0.0
2017-Apr-24 01:59N 34°34' E 135°26'0 0.0
2017-Apr-24 01:29N 34°34' E 135°26'0 0.0
2017-Apr-24 00:53N 34°34' E 135°26'0 0.0
2017-Apr-24 00:29N 34°34' E 135°26'0 0.0
2017-Apr-23 23:53N 34°34' E 135°26'0 0.0
2017-Apr-23 23:30N 34°34' E 135°26'3 6.1
2017-Apr-23 23:01N 34°36' E 135°23'611.3
2017-Apr-23 22:29N 34°33' E 135°18'611.4
2017-Apr-23 22:00N 34°29' E 135°12'611.9
2017-Apr-23 21:30N 34°25' E 135°08'612.1
2017-Apr-23 21:00N 34°20' E 135°02'611.8
2017-Apr-23 20:31N 34°15' E 134°59'611.8
2017-Apr-23 20:00N 34°09' E 135°00'11 0.3
2017-Apr-22 06:39N 33°58' E 135°00'512.1
2017-Apr-22 06:17N 34°03' E 134°59'412.1
2017-Apr-22 05:59N 34°07' E 134°59'612.6
2017-Apr-22 05:28N 34°13' E 134°58'712.8
2017-Apr-22 04:55N 34°20' E 134°59'512.0
2017-Apr-22 04:29N 34°24' E 135°03'612.3
2017-Apr-22 04:00N 34°28' E 135°09'612.2
2017-Apr-22 03:29N 34°31' E 135°15'611.9
2017-Apr-22 02:59N 34°35' E 135°21'4 7.8
2017-Apr-22 02:29N 34°35' E 135°25'0 0.4
2017-Apr-22 01:30N 34°34' E 135°26'0 0.0
2017-Apr-22 01:00N 34°34' E 135°26'0 0.0
2017-Apr-22 00:24N 34°34' E 135°26'0 0.0
2017-Apr-22 00:00N 34°34' E 135°26'0 0.0
2017-Apr-21 23:24N 34°34' E 135°26'1 2.7
2017-Apr-21 23:00N 34°35' E 135°25'5 9.1
2017-Apr-21 22:30N 34°34' E 135°20'611.0
2017-Apr-21 22:00N 34°31' E 135°15'611.0
2017-Apr-21 21:30N 34°27' E 135°10'611.4
2017-Apr-21 21:00N 34°23' E 135°05'811.4
2017-Apr-21 20:17N 34°16' E 134°59'312.2
2017-Apr-21 20:00N 34°13' E 134°60'611.6
2017-Apr-21 19:29N 34°07' E 135°01'611.6
2017-Apr-21 18:59N 34°01' E 135°02'  

Dump ship's entire track history